Nodine, Minnesota
Current Conditions -  °F | °C
As of 1:53 AM on Saturday 29 Nov 2014 (Local Time) from KLSE Reporting Station
Clear Clear  
Wind Chill: 18°   Ceiling: Unl
Heat Index: 25°   Visibility: 8mi
Dew Point: 21°   Wind: 6mph
Humidity: 85%   Direction: 140°SE
Pressure: 29.69"   Gusts: NA
Location:  43.9163°N, 91.4255°W
Report Text: KLSE 290753Z AUTO 14005KT 8SM CLR M04/M06 A2969 RMK AO2 SLP069 T10391061
Loading
Personal Weather Stations






























Interactive Weather Map New forecast layout! Learn more

10-Day Weather Forecast

Advertisements
Track Severe Weather on mobile